Time;durP1;ratioP1;P1;durP2;ratioP2;P2;SDS_P1;SDS_P2;PMS_P1;PMS_P2;Temp;Humidity;BMP_temperature;BMP_pressure;BME280_temperature;BME280_humidity;BME280_pressure;Samples;Min_cycle;Max_cycle;Signal;HPM_P1;HPM_P2
2022/11/14 00:00:31;;;;;;;23.35;4.55;;;;;;;;;;7399553;19;20010;-82
2022/11/14 00:03:01;;;;;;;5.10;3.67;;;;;;;;;;7399406;19;20007;-81
2022/11/14 00:05:26;;;;;;;23.63;4.50;;;;;;;;;;7396609;19;20513;-81
2022/11/14 00:07:52;;;;;;;5.50;3.63;;;;;;;;;;7398684;19;20002;-80
2022/11/14 00:10:17;;;;;;;5.72;3.38;;;;;;;;;;7401721;19;20006;-80
2022/11/14 00:12:43;;;;;;;4.25;3.40;;;;;;;;;;7399332;19;20394;-81
2022/11/14 00:15:09;;;;;;;10.77;3.63;;;;;;;;;;7395582;19;20398;-82
2022/11/14 00:17:34;;;;;;;7.20;3.55;;;;;;;;;;7398554;19;20038;-81
2022/11/14 00:19:59;;;;;;;10.25;3.20;;;;;;;;;;7393685;19;20462;-81
2022/11/14 00:22:25;;;;;;;7.95;3.42;;;;;;;;;;7395417;19;20315;-81
2022/11/14 00:24:50;;;;;;;5.05;3.50;;;;;;;;;;7392937;19;20003;-81
2022/11/14 00:27:16;;;;;;;9.95;3.78;;;;;;;;;;7398518;19;20470;-81
2022/11/14 00:29:41;;;;;;;4.70;3.30;;;;;;;;;;7398227;19;19998;-81
2022/11/14 00:32:06;;;;;;;5.45;3.60;;;;;;;;;;7395832;19;20007;-82
2022/11/14 00:34:32;;;;;;;6.72;3.90;;;;;;;;;;7394406;19;20029;-81
2022/11/14 00:36:58;;;;;;;4.75;3.83;;;;;;;;;;7398160;19;20003;-82
2022/11/14 00:39:23;;;;;;;7.10;4.32;;;;;;;;;;7396868;19;20023;-81
2022/11/14 00:41:49;;;;;;;6.30;3.80;;;;;;;;;;7398494;19;20015;-81
2022/11/14 00:44:14;;;;;;;5.10;3.55;;;;;;;;;;7395535;19;20028;-81
2022/11/14 00:46:39;;;;;;;5.50;3.40;;;;;;;;;;7394599;19;20014;-80
2022/11/14 00:49:05;;;;;;;7.50;4.45;;;;;;;;;;7396478;19;20023;-81
2022/11/14 00:51:30;;;;;;;7.85;4.00;;;;;;;;;;7394816;19;19999;-80
2022/11/14 00:53:55;;;;;;;7.65;3.88;;;;;;;;;;7397351;19;20006;-81
2022/11/14 00:56:21;;;;;;;5.90;3.72;;;;;;;;;;7398772;19;20014;-81
2022/11/14 00:58:46;;;;;;;4.90;3.38;;;;;;;;;;7396965;19;21588;-81
2022/11/14 01:01:11;;;;;;;5.68;3.58;;;;;;;;;;7395930;19;20014;-81
2022/11/14 01:03:37;;;;;;;6.78;3.53;;;;;;;;;;7397707;19;20050;-81
2022/11/14 01:06:06;;;;;;;5.45;3.70;;;;;;;;;;7394093;19;20070;-81
2022/11/14 01:08:31;;;;;;;5.63;4.03;;;;;;;;;;7395994;19;20014;-81
2022/11/14 01:10:58;;;;;;;10.60;3.95;;;;;;;;;;7395116;19;20039;-81
2022/11/14 01:13:23;;;;;;;18.77;4.88;;;;;;;;;;7394395;19;20542;-81
2022/11/14 01:15:49;;;;;;;5.63;3.78;;;;;;;;;;7395742;19;20310;-81
2022/11/14 01:18:17;;;;;;;3.85;3.13;;;;;;;;;;7397465;19;20327;-81
2022/11/14 01:20:44;;;;;;;11.00;4.20;;;;;;;;;;7395392;19;20520;-80
2022/11/14 01:23:12;;;;;;;6.97;4.50;;;;;;;;;;7395961;19;20015;-80
2022/11/14 01:25:39;;;;;;;5.47;3.72;;;;;;;;;;7393589;19;20007;-79
2022/11/14 01:28:06;;;;;;;13.23;3.88;;;;;;;;;;7397637;19;20351;-80
2022/11/14 01:30:32;;;;;;;8.30;4.20;;;;;;;;;;7396477;19;20006;-81
2022/11/14 01:32:57;;;;;;;5.95;3.50;;;;;;;;;;7395659;19;20482;-81
2022/11/14 01:35:23;;;;;;;10.23;3.92;;;;;;;;;;7411957;19;20029;-80
2022/11/14 01:37:48;;;;;;;5.68;3.50;;;;;;;;;;7425114;19;20025;-80
2022/11/14 01:40:13;;;;;;;5.95;3.65;;;;;;;;;;7399584;19;20458;-81
2022/11/14 01:42:39;;;;;;;7.72;3.90;;;;;;;;;;7393724;19;20368;-81
2022/11/14 01:45:41;;;;;;;8.40;3.70;;;;;;;;;;7392756;19;20020;-81
2022/11/14 01:48:19;;;;;;;8.65;3.63;;;;;;;;;;7395386;19;20006;-81
2022/11/14 01:50:48;;;;;;;7.60;3.83;;;;;;;;;;7395013;19;20073;-80
2022/11/14 01:53:14;;;;;;;8.95;3.80;;;;;;;;;;7395896;19;20002;-81
2022/11/14 01:55:39;;;;;;;7.30;3.85;;;;;;;;;;7391030;19;20026;-81
2022/11/14 01:58:05;;;;;;;5.65;3.45;;;;;;;;;;7406177;19;20010;-81
2022/11/14 02:00:31;;;;;;;9.68;4.03;;;;;;;;;;7422840;19;20010;-80
2022/11/14 02:02:58;;;;;;;5.80;3.00;;;;;;;;;;7411864;19;20015;-81
2022/11/14 02:05:23;;;;;;;8.15;3.58;;;;;;;;;;7393416;19;20493;-80
2022/11/14 02:07:48;;;;;;;5.13;2.60;;;;;;;;;;7398684;19;20018;-80
2022/11/14 02:10:18;;;;;;;2.92;2.50;;;;;;;;;;7395438;19;20019;-80
2022/11/14 02:12:44;;;;;;;4.03;2.92;;;;;;;;;;7395613;19;20026;-80
2022/11/14 02:15:10;;;;;;;16.85;4.20;;;;;;;;;;7395032;19;20473;-80
2022/11/14 02:17:36;;;;;;;9.63;2.38;;;;;;;;;;7397505;19;20011;-80
2022/11/14 02:20:10;;;;;;;3.15;2.40;;;;;;;;;;7395601;19;20002;-80
2022/11/14 02:22:40;;;;;;;12.73;3.17;;;;;;;;;;7395764;19;20086;-80
2022/11/14 02:25:08;;;;;;;5.88;2.67;;;;;;;;;;7391070;19;20003;-80
2022/11/14 02:27:35;;;;;;;5.28;2.15;;;;;;;;;;7392853;19;20013;-81
2022/11/14 02:30:11;;;;;;;3.30;1.88;;;;;;;;;;7394007;19;20014;-80
2022/11/14 02:32:37;;;;;;;6.85;2.15;;;;;;;;;;7392938;19;20023;-81
2022/11/14 02:35:02;;;;;;;2.92;2.30;;;;;;;;;;7393533;19;20010;-80
2022/11/14 02:37:27;;;;;;;3.13;1.98;;;;;;;;;;7393987;19;20013;-81
2022/11/14 02:39:53;;;;;;;3.17;2.20;;;;;;;;;;7392230;19;20074;-81
2022/11/14 02:42:18;;;;;;;6.50;2.50;;;;;;;;;;7392843;19;20311;-81
2022/11/14 02:44:43;;;;;;;8.02;2.70;;;;;;;;;;7386636;19;20017;-81
2022/11/14 02:47:09;;;;;;;2.83;2.25;;;;;;;;;;7392707;19;20006;-81
2022/11/14 02:49:34;;;;;;;3.65;2.53;;;;;;;;;;7393955;19;20010;-81
2022/11/14 02:51:59;;;;;;;3.33;2.60;;;;;;;;;;7389624;19;20031;-81
2022/11/14 02:54:25;;;;;;;3.78;2.70;;;;;;;;;;7388521;19;20014;-81
2022/11/14 02:56:50;;;;;;;3.10;2.60;;;;;;;;;;7393309;19;20377;-81
2022/11/14 02:59:15;;;;;;;3.95;2.38;;;;;;;;;;7393594;19;20084;-81
2022/11/14 03:01:41;;;;;;;3.45;2.38;;;;;;;;;;7390259;19;20006;-81
2022/11/14 03:04:06;;;;;;;2.05;1.85;;;;;;;;;;7384313;19;20017;-81
2022/11/14 03:06:31;;;;;;;7.50;2.45;;;;;;;;;;7387933;19;20003;-81
2022/11/14 03:08:57;;;;;;;5.97;2.10;;;;;;;;;;7390638;19;20006;-81
2022/11/14 03:11:22;;;;;;;3.10;2.50;;;;;;;;;;7391760;19;20442;-81
2022/11/14 03:13:47;;;;;;;2.95;2.63;;;;;;;;;;7390374;19;20002;-81
2022/11/14 03:16:13;;;;;;;3.47;2.50;;;;;;;;;;7395509;19;20084;-81
2022/11/14 03:18:39;;;;;;;3.55;2.45;;;;;;;;;;7399924;19;20115;-81
2022/11/14 03:21:09;;;;;;;3.88;2.70;;;;;;;;;;7400631;19;20073;-81
2022/11/14 03:23:35;;;;;;;9.57;2.10;;;;;;;;;;7397536;19;20447;-81
2022/11/14 03:26:01;;;;;;;3.90;2.30;;;;;;;;;;7396158;19;20002;-80
2022/11/14 03:28:27;;;;;;;6.32;2.65;;;;;;;;;;7396818;19;20130;-81
2022/11/14 03:30:53;;;;;;;6.53;2.22;;;;;;;;;;7400538;19;20012;-81
2022/11/14 03:33:18;;;;;;;17.98;2.70;;;;;;;;;;7398537;19;20013;-81
2022/11/14 03:35:43;;;;;;;3.45;2.20;;;;;;;;;;7397191;19;20022;-80
2022/11/14 03:38:09;;;;;;;5.03;2.22;;;;;;;;;;7400430;19;20010;-81
2022/11/14 03:40:38;;;;;;;7.03;2.78;;;;;;;;;;7398237;19;20066;-81
2022/11/14 03:43:04;;;;;;;12.38;3.03;;;;;;;;;;7400086;19;20003;-81
2022/11/14 03:45:29;;;;;;;6.72;2.65;;;;;;;;;;7397208;19;20320;-81
2022/11/14 03:47:54;;;;;;;3.20;2.63;;;;;;;;;;7399931;19;20451;-81
2022/11/14 03:50:20;;;;;;;7.82;2.55;;;;;;;;;;7399558;19;20680;-81
2022/11/14 03:52:48;;;;;;;13.75;2.60;;;;;;;;;;7403208;19;20320;-80
2022/11/14 03:55:13;;;;;;;13.55;3.72;;;;;;;;;;7395889;19;20281;-81
2022/11/14 03:57:39;;;;;;;24.08;3.20;;;;;;;;;;7401842;19;20023;-81
2022/11/14 04:00:04;;;;;;;8.45;3.55;;;;;;;;;;7406954;19;20045;-79
2022/11/14 04:02:30;;;;;;;11.25;3.30;;;;;;;;;;7405882;19;20365;-80
2022/11/14 04:04:55;;;;;;;3.53;2.10;;;;;;;;;;7404985;19;20011;-81
2022/11/14 04:07:21;;;;;;;2.40;1.88;;;;;;;;;;7422390;19;20007;-81
2022/11/14 04:09:46;;;;;;;9.55;2.60;;;;;;;;;;7428265;19;20018;-80
2022/11/14 04:12:11;;;;;;;3.15;2.50;;;;;;;;;;7427826;19;20002;-80
2022/11/14 04:14:37;;;;;;;3.10;2.08;;;;;;;;;;7404134;19;20421;-80
2022/11/14 04:17:02;;;;;;;3.13;2.47;;;;;;;;;;7401742;19;20006;-81
2022/11/14 04:19:27;;;;;;;7.30;2.33;;;;;;;;;;7402413;19;20006;-81
2022/11/14 04:21:53;;;;;;;4.63;2.13;;;;;;;;;;7405602;19;20032;-81
2022/11/14 04:24:18;;;;;;;9.68;2.63;;;;;;;;;;7411373;19;20014;-81
2022/11/14 04:26:43;;;;;;;4.03;2.90;;;;;;;;;;7423361;19;20027;-80
2022/11/14 04:29:08;;;;;;;8.73;3.17;;;;;;;;;;7410492;19;20022;-80
2022/11/14 04:31:34;;;;;;;6.47;2.67;;;;;;;;;;7397554;19;20368;-80
2022/11/14 04:33:59;;;;;;;2.67;2.30;;;;;;;;;;7397788;19;20015;-80
2022/11/14 04:36:24;;;;;;;3.83;1.90;;;;;;;;;;7399263;19;20077;-80
2022/11/14 04:38:50;;;;;;;3.00;2.08;;;;;;;;;;7401610;19;20006;-80
2022/11/14 04:41:15;;;;;;;11.07;3.78;;;;;;;;;;7398316;19;20419;-80
2022/11/14 04:43:40;;;;;;;2.50;2.03;;;;;;;;;;7397578;19;20014;-80
2022/11/14 04:46:06;;;;;;;5.80;2.00;;;;;;;;;;7397285;19;20029;-80
2022/11/14 04:48:31;;;;;;;5.25;3.08;;;;;;;;;;7402043;19;20031;-80
2022/11/14 04:50:56;;;;;;;3.97;2.72;;;;;;;;;;7402401;19;20010;-81
2022/11/14 04:53:21;;;;;;;3.53;2.58;;;;;;;;;;7400290;19;20038;-80
2022/11/14 04:55:47;;;;;;;2.67;2.45;;;;;;;;;;7394158;19;20002;-80
2022/11/14 04:58:12;;;;;;;2.75;2.17;;;;;;;;;;7397811;19;20006;-81
2022/11/14 05:00:37;;;;;;;5.97;2.42;;;;;;;;;;7394435;19;20100;-81
2022/11/14 05:03:03;;;;;;;2.05;1.83;;;;;;;;;;7394063;19;20478;-80
2022/11/14 05:05:28;;;;;;;4.72;2.17;;;;;;;;;;7390792;19;20361;-80
2022/11/14 05:07:54;;;;;;;2.53;1.95;;;;;;;;;;7392469;19;20009;-80
2022/11/14 05:10:19;;;;;;;3.95;2.38;;;;;;;;;;7393441;19;20018;-80
2022/11/14 05:12:44;;;;;;;4.80;3.22;;;;;;;;;;7396213;19;20007;-80
2022/11/14 05:15:10;;;;;;;5.15;2.28;;;;;;;;;;7391281;19;20013;-80
2022/11/14 05:17:35;;;;;;;2.13;1.85;;;;;;;;;;7397552;19;20018;-82
2022/11/14 05:20:01;;;;;;;6.20;2.30;;;;;;;;;;7393971;19;20001;-81
2022/11/14 05:22:26;;;;;;;2.92;1.88;;;;;;;;;;7395597;19;20031;-81
2022/11/14 05:24:51;;;;;;;23.25;3.92;;;;;;;;;;7393265;19;20086;-81
2022/11/14 05:27:16;;;;;;;14.00;2.63;;;;;;;;;;7394773;19;20003;-81
2022/11/14 05:29:42;;;;;;;7.78;2.28;;;;;;;;;;7397694;19;20448;-80
2022/11/14 05:32:07;;;;;;;2.33;1.70;;;;;;;;;;7393311;19;20533;-80
2022/11/14 05:34:32;;;;;;;24.83;3.55;;;;;;;;;;7393019;19;20014;-81
2022/11/14 05:36:58;;;;;;;8.95;3.50;;;;;;;;;;7395517;19;20073;-80
2022/11/14 05:39:23;;;;;;;6.00;2.17;;;;;;;;;;7392527;19;20027;-80
2022/11/14 05:41:48;;;;;;;14.07;2.50;;;;;;;;;;7394518;19;20018;-80
2022/11/14 05:44:14;;;;;;;8.18;2.47;;;;;;;;;;7392503;19;20489;-80
2022/11/14 05:46:39;;;;;;;8.68;2.92;;;;;;;;;;7392930;19;20006;-80
2022/11/14 05:49:04;;;;;;;5.70;3.78;;;;;;;;;;7394744;19;20002;-81
2022/11/14 05:51:30;;;;;;;18.17;3.22;;;;;;;;;;7395636;19;20016;-81
2022/11/14 05:53:55;;;;;;;5.13;1.80;;;;;;;;;;7392618;19;20017;-81
2022/11/14 05:56:21;;;;;;;24.08;3.95;;;;;;;;;;7395810;19;20006;-81
2022/11/14 05:58:46;;;;;;;1.95;1.67;;;;;;;;;;7396445;19;20390;-81
2022/11/14 06:01:17;;;;;;;3.40;1.42;;;;;;;;;;7393648;19;20018;-81
2022/11/14 06:03:45;;;;;;;1.30;1.20;;;;;;;;;;7391910;19;20019;-81
2022/11/14 06:06:14;;;;;;;4.80;1.75;;;;;;;;;;7393662;19;20006;-81
2022/11/14 06:08:40;;;;;;;3.35;1.45;;;;;;;;;;7395084;19;20033;-81
2022/11/14 06:11:14;;;;;;;1.48;1.30;;;;;;;;;;7391063;19;20006;-82
2022/11/14 06:13:40;;;;;;;3.57;1.67;;;;;;;;;;7394143;19;20013;-82
2022/11/14 06:16:11;;;;;;;2.28;1.67;;;;;;;;;;7392108;19;20015;-82
2022/11/14 06:18:37;;;;;;;5.88;1.65;;;;;;;;;;7395009;19;20346;-81
2022/11/14 06:21:09;;;;;;;2.83;1.70;;;;;;;;;;7390671;19;20066;-82
2022/11/14 06:23:35;;;;;;;5.63;1.45;;;;;;;;;;7394507;19;20410;-81
2022/11/14 06:26:05;;;;;;;12.63;1.90;;;;;;;;;;7389414;19;20015;-81
2022/11/14 06:28:30;;;;;;;3.50;2.47;;;;;;;;;;7392958;19;20006;-81
2022/11/14 06:30:57;;;;;;;1.40;1.30;;;;;;;;;;7394433;19;20368;-81
2022/11/14 06:33:23;;;;;;;1.77;1.42;;;;;;;;;;7396541;19;20018;-82
2022/11/14 06:35:48;;;;;;;5.05;1.73;;;;;;;;;;7392672;19;20013;-82
2022/11/14 06:38:13;;;;;;;4.10;1.52;;;;;;;;;;7396039;19;20333;-82
2022/11/14 06:40:39;;;;;;;4.80;1.40;;;;;;;;;;7390619;19;20032;-82
2022/11/14 06:43:04;;;;;;;4.28;1.63;;;;;;;;;;7392244;19;20735;-82
2022/11/14 06:45:29;;;;;;;2.92;1.40;;;;;;;;;;7389049;19;20006;-81
2022/11/14 06:47:58;;;;;;;8.68;1.60;;;;;;;;;;7384907;19;20355;-82
2022/11/14 06:50:24;;;;;;;13.43;2.00;;;;;;;;;;7390479;19;20051;-81
2022/11/14 06:52:50;;;;;;;5.07;1.52;;;;;;;;;;7397096;19;20022;-81
2022/11/14 06:55:15;;;;;;;1.80;1.27;;;;;;;;;;7394492;19;20014;-82
2022/11/14 06:57:40;;;;;;;3.50;1.33;;;;;;;;;;7394539;19;20106;-82
2022/11/14 07:00:07;;;;;;;5.53;1.83;;;;;;;;;;7390123;19;20311;-82
2022/11/14 07:02:32;;;;;;;1.23;1.13;;;;;;;;;;7391961;19;20447;-82
2022/11/14 07:04:57;;;;;;;3.83;1.33;;;;;;;;;;7390246;19;20035;-81
2022/11/14 07:07:23;;;;;;;9.77;2.38;;;;;;;;;;7389955;19;20023;-81
2022/11/14 07:09:48;;;;;;;3.92;1.40;;;;;;;;;;7392090;19;20066;-82
2022/11/14 07:12:13;;;;;;;6.00;1.55;;;;;;;;;;7392786;19;20006;-81
2022/11/14 07:14:39;;;;;;;2.78;1.40;;;;;;;;;;7400840;19;20018;-81
2022/11/14 07:17:04;;;;;;;1.67;1.38;;;;;;;;;;7418726;19;20030;-83
2022/11/14 07:19:29;;;;;;;3.05;1.25;;;;;;;;;;7399004;19;20022;-83
2022/11/14 07:21:55;;;;;;;5.72;1.67;;;;;;;;;;7391044;19;20011;-83
2022/11/14 07:24:20;;;;;;;16.73;3.28;;;;;;;;;;7389195;19;20002;-83
2022/11/14 07:26:45;;;;;;;5.07;1.27;;;;;;;;;;7394082;19;19991;-83
2022/11/14 07:29:10;;;;;;;5.68;1.90;;;;;;;;;;7390433;19;20303;-83
2022/11/14 07:31:36;;;;;;;8.98;1.77;;;;;;;;;;7393599;19;20010;-82
2022/11/14 07:34:01;;;;;;;4.65;1.48;;;;;;;;;;7394368;19;20030;-82
2022/11/14 07:36:26;;;;;;;9.00;1.65;;;;;;;;;;7403940;19;20002;-82
2022/11/14 07:38:52;;;;;;;4.38;1.67;;;;;;;;;;7399837;19;20070;-83
2022/11/14 07:41:17;;;;;;;8.50;1.50;;;;;;;;;;7388754;19;20033;-88
2022/11/14 07:43:43;;;;;;;3.97;1.70;;;;;;;;;;7378475;19;20660;-84
2022/11/14 07:46:14;;;;;;;3.40;1.55;;;;;;;;;;7379333;19;20014;-81
2022/11/14 07:48:39;;;;;;;3.67;1.30;;;;;;;;;;7397925;19;20055;-81
2022/11/14 07:51:06;;;;;;;1.50;1.40;;;;;;;;;;7411147;19;20006;-81
2022/11/14 07:53:33;;;;;;;4.47;1.83;;;;;;;;;;7402503;19;20010;-83
2022/11/14 07:56:05;;;;;;;14.40;3.90;;;;;;;;;;7389451;19;20037;-82
2022/11/14 07:58:30;;;;;;;2.88;1.35;;;;;;;;;;7391076;19;20014;-82
2022/11/14 08:01:00;;;;;;;3.55;1.52;;;;;;;;;;7392069;19;20014;-82
2022/11/14 08:03:25;;;;;;;2.75;1.50;;;;;;;;;;7395807;19;20002;-83
2022/11/14 08:05:59;;;;;;;8.43;1.80;;;;;;;;;;7390761;19;20069;-82
2022/11/14 08:08:24;;;;;;;6.18;2.90;;;;;;;;;;7393230;19;20110;-83
2022/11/14 08:10:50;;;;;;;3.20;1.50;;;;;;;;;;7393987;19;20054;-84
2022/11/14 08:13:15;;;;;;;10.38;2.00;;;;;;;;;;7397541;19;20003;-84
2022/11/14 08:15:41;;;;;;;6.25;1.80;;;;;;;;;;7395578;19;20019;-84
2022/11/14 08:18:06;;;;;;;8.98;1.58;;;;;;;;;;7398844;19;20002;-84
2022/11/14 08:20:33;;;;;;;2.03;1.65;;;;;;;;;;7398181;19;20391;-83
2022/11/14 08:23:03;;;;;;;7.97;1.48;;;;;;;;;;7396139;19;20019;-83
2022/11/14 08:25:29;;;;;;;3.75;1.52;;;;;;;;;;7394602;19;20011;-83
2022/11/14 08:27:54;;;;;;;6.78;1.95;;;;;;;;;;7400963;19;20094;-81
2022/11/14 08:30:20;;;;;;;2.28;1.70;;;;;;;;;;7392386;19;20006;-83
2022/11/14 08:32:45;;;;;;;3.05;2.13;;;;;;;;;;7396377;19;19998;-83
2022/11/14 08:35:10;;;;;;;4.43;1.70;;;;;;;;;;7390987;19;20518;-85
2022/11/14 08:37:36;;;;;;;2.17;1.70;;;;;;;;;;7390905;19;20019;-84
2022/11/14 08:40:01;;;;;;;3.08;1.75;;;;;;;;;;7397888;19;20006;-85
2022/11/14 08:42:27;;;;;;;7.70;2.20;;;;;;;;;;7399223;19;20044;-85
2022/11/14 08:44:52;;;;;;;3.30;2.17;;;;;;;;;;7396853;19;20022;-85
2022/11/14 08:47:18;;;;;;;2.63;2.03;;;;;;;;;;7397158;19;20031;-84
2022/11/14 08:49:43;;;;;;;5.35;1.83;;;;;;;;;;7391204;19;20075;-85
2022/11/14 08:52:08;;;;;;;2.05;1.67;;;;;;;;;;7398610;19;20010;-85
2022/11/14 08:54:34;;;;;;;2.25;1.77;;;;;;;;;;7400858;19;20022;-84
2022/11/14 08:56:59;;;;;;;3.67;2.00;;;;;;;;;;7402037;19;20007;-85
2022/11/14 08:59:24;;;;;;;2.58;1.60;;;;;;;;;;7411232;19;20458;-83
2022/11/14 09:01:50;;;;;;;2.05;1.85;;;;;;;;;;7419117;19;19990;-83
2022/11/14 09:04:15;;;;;;;3.10;2.17;;;;;;;;;;7408844;19;20094;-84
2022/11/14 09:06:41;;;;;;;8.88;2.00;;;;;;;;;;7406864;19;20010;-85
2022/11/14 09:09:06;;;;;;;9.57;2.20;;;;;;;;;;7398290;19;20007;-84
2022/11/14 09:11:31;;;;;;;3.58;2.22;;;;;;;;;;7398721;19;20006;-84
2022/11/14 09:13:57;;;;;;;7.72;1.80;;;;;;;;;;7394844;19;20006;-84
2022/11/14 09:16:22;;;;;;;2.45;1.85;;;;;;;;;;7398561;19;20006;-84
2022/11/14 09:18:48;;;;;;;2.25;1.92;;;;;;;;;;7398977;19;20010;-83
2022/11/14 09:21:13;;;;;;;2.95;2.17;;;;;;;;;;7403951;19;20003;-84
2022/11/14 09:23:39;;;;;;;3.35;2.50;;;;;;;;;;7407779;19;20007;-84
2022/11/14 09:26:06;;;;;;;6.05;2.63;;;;;;;;;;7403371;19;20013;-84
2022/11/14 09:28:31;;;;;;;3.80;2.50;;;;;;;;;;7394508;19;20021;-84
2022/11/14 09:31:05;;;;;;;2.97;2.35;;;;;;;;;;7395189;19;20073;-84
2022/11/14 09:33:31;;;;;;;2.40;2.20;;;;;;;;;;7394765;19;20023;-84
2022/11/14 09:36:02;;;;;;;2.95;2.25;;;;;;;;;;7390662;19;20003;-84
2022/11/14 09:38:27;;;;;;;2.30;1.95;;;;;;;;;;7392993;19;20504;-83
2022/11/14 09:41:07;;;;;;;3.47;2.10;;;;;;;;;;7394493;19;20551;-83
2022/11/14 09:43:51;;;;;;;3.15;2.58;;;;;;;;;;7392313;19;20006;-82
2022/11/14 09:46:22;;;;;;;4.15;2.83;;;;;;;;;;7393458;19;20017;-84
2022/11/14 09:48:50;;;;;;;3.08;2.55;;;;;;;;;;7393455;19;20038;-83
2022/11/14 09:51:26;;;;;;;3.95;2.72;;;;;;;;;;7397445;19;19999;-83
2022/11/14 09:54:21;;;;;;;3.00;2.22;;;;;;;;;;7394744;19;20006;-83
2022/11/14 09:56:46;;;;;;;2.90;2.30;;;;;;;;;;7396585;19;20365;-83
2022/11/14 09:59:12;;;;;;;3.10;2.15;;;;;;;;;;7393438;19;20006;-83
2022/11/14 10:01:48;;;;;;;3.80;2.50;;;;;;;;;;7394225;19;20343;-83
2022/11/14 10:05:07;;;;;;;2.60;2.20;;;;;;;;;;7392012;19;20006;-83
2022/11/14 10:07:57;;;;;;;3.13;2.20;;;;;;;;;;7424650;19;20011;-82
2022/11/14 10:10:44;;;;;;;2.40;1.90;;;;;;;;;;7402725;19;20005;-84
2022/11/14 10:13:22;;;;;;;4.55;2.17;;;;;;;;;;7394106;19;20577;-84
2022/11/14 10:15:55;;;;;;;4.20;2.30;;;;;;;;;;7392072;19;20033;-83
2022/11/14 10:18:48;;;;;;;5.60;2.40;;;;;;;;;;7393112;19;20014;-84
2022/11/14 10:21:43;;;;;;;2.78;2.38;;;;;;;;;;7390266;19;20039;-83
2022/11/14 10:24:08;;;;;;;3.42;2.40;;;;;;;;;;7389145;19;20023;-83
2022/11/14 10:26:42;;;;;;;2.97;2.00;;;;;;;;;;7392653;19;20012;-83
2022/11/14 10:29:45;;;;;;;2.97;2.22;;;;;;;;;;7392130;19;20022;-83
2022/11/14 10:32:31;;;;;;;3.05;2.28;;;;;;;;;;7389801;19;20021;-84
2022/11/14 10:35:08;;;;;;;4.18;2.35;;;;;;;;;;7391512;19;20038;-85
2022/11/14 10:37:44;;;;;;;2.00;1.83;;;;;;;;;;7391490;19;20013;-84
2022/11/14 10:40:23;;;;;;;2.85;1.67;;;;;;;;;;7399953;19;20018;-84
2022/11/14 10:43:02;;;;;;;3.10;2.10;;;;;;;;;;7411921;19;20455;-83
2022/11/14 10:45:35;;;;;;;2.25;1.95;;;;;;;;;;7398161;19;20460;-83
2022/11/14 10:48:28;;;;;;;2.88;2.40;;;;;;;;;;7389216;19;20377;-85
2022/11/14 10:51:01;;;;;;;2.83;2.38;;;;;;;;;;7425170;19;20014;-85
2022/11/14 10:53:38;;;;;;;2.60;2.17;;;;;;;;;;7427023;19;20045;-85
2022/11/14 10:56:03;;;;;;;3.05;2.35;;;;;;;;;;7425142;19;20010;-85
2022/11/14 10:58:28;;;;;;;3.00;2.40;;;;;;;;;;7428665;19;20010;-84
2022/11/14 11:00:54;;;;;;;2.70;2.35;;;;;;;;;;7426996;19;20005;-82
2022/11/14 11:03:20;;;;;;;2.97;2.15;;;;;;;;;;7421727;19;20050;-85
2022/11/14 11:05:53;;;;;;;3.22;2.42;;;;;;;;;;7423298;19;19999;-84
2022/11/14 11:11:28;;;;;;;2.72;2.28;;;;;;;;;;7418863;19;20022;-83
2022/11/14 11:13:56;;;;;;;2.50;2.10;;;;;;;;;;7419393;19;20124;-83
2022/11/14 11:16:23;;;;;;;3.25;2.45;;;;;;;;;;7417932;19;20015;-85
2022/11/14 11:18:48;;;;;;;2.85;2.08;;;;;;;;;;7418643;19;20003;-83
2022/11/14 11:21:16;;;;;;;3.53;2.60;;;;;;;;;;7398723;19;20009;-83
2022/11/14 11:23:52;;;;;;;3.63;2.72;;;;;;;;;;7393774;19;20014;-84
2022/11/14 11:26:28;;;;;;;4.13;2.55;;;;;;;;;;7397520;19;20011;-84
2022/11/14 11:29:13;;;;;;;2.35;2.15;;;;;;;;;;7385146;19;20010;-85
2022/11/14 11:31:59;;;;;;;2.63;2.17;;;;;;;;;;7389346;19;20474;-83
2022/11/14 11:34:27;;;;;;;3.58;2.50;;;;;;;;;;7387733;19;20373;-82
2022/11/14 11:37:12;;;;;;;2.83;2.50;;;;;;;;;;7398168;19;20085;-83
2022/11/14 11:39:45;;;;;;;3.17;2.30;;;;;;;;;;7395613;19;20017;-82
2022/11/14 11:42:17;;;;;;;3.17;2.22;;;;;;;;;;7401595;19;20450;-82
2022/11/14 11:44:47;;;;;;;3.08;2.50;;;;;;;;;;7413056;19;20005;-83
2022/11/14 11:47:17;;;;;;;3.33;2.72;;;;;;;;;;7436688;19;19995;-82
2022/11/14 11:49:50;;;;;;;3.97;2.72;;;;;;;;;;7424184;19;20002;-82
2022/11/14 11:52:43;;;;;;;3.15;2.47;;;;;;;;;;7406185;19;20586;-82
2022/11/14 11:55:23;;;;;;;2.50;2.17;;;;;;;;;;7401381;19;20006;-81
2022/11/14 11:58:22;;;;;;;4.20;2.35;;;;;;;;;;7400206;19;20367;-81
2022/11/14 12:00:51;;;;;;;2.47;2.20;;;;;;;;;;7398910;19;20010;-87
2022/11/14 12:03:17;;;;;;;2.55;2.35;;;;;;;;;;7396704;19;20076;-83
2022/11/14 12:05:54;;;;;;;2.97;2.67;;;;;;;;;;7393915;19;20333;-82
2022/11/14 12:08:34;;;;;;;4.00;2.35;;;;;;;;;;7396608;19;20338;-82
2022/11/14 12:11:01;;;;;;;2.25;2.05;;;;;;;;;;7391290;19;20019;-81
2022/11/14 12:14:00;;;;;;;2.00;1.80;;;;;;;;;;7395301;19;20032;-84
2022/11/14 12:16:30;;;;;;;3.33;2.40;;;;;;;;;;7398378;19;20010;-85
2022/11/14 12:18:55;;;;;;;3.22;2.33;;;;;;;;;;7402618;19;20010;-84
2022/11/14 12:21:37;;;;;;;3.42;2.25;;;;;;;;;;7401747;19;20005;-84
2022/11/14 12:24:14;;;;;;;2.40;2.20;;;;;;;;;;7401217;19;20363;-89
2022/11/14 12:27:16;;;;;;;2.95;2.17;;;;;;;;;;7402284;19;20002;-85
2022/11/14 12:29:45;;;;;;;2.45;2.00;;;;;;;;;;7400924;19;20009;-87
2022/11/14 12:32:14;;;;;;;2.60;2.03;;;;;;;;;;7408635;19;20006;-87
2022/11/14 12:34:45;;;;;;;2.35;1.88;;;;;;;;;;7398268;19;20014;-88
2022/11/14 12:37:17;;;;;;;2.30;2.00;;;;;;;;;;7397537;19;20006;-90
2022/11/14 12:39:59;;;;;;;6.93;2.47;;;;;;;;;;7391218;19;20024;-91
2022/11/14 12:42:25;;;;;;;14.82;2.22;;;;;;;;;;7404205;19;20011;-92
2022/11/14 12:50:38;;;;;;;2.50;2.20;;;;;;;;;;7398698;19;20328;-92
2022/11/14 12:53:41;;;;;;;15.10;2.40;;;;;;;;;;7410316;19;20010;-92
2022/11/14 12:56:28;;;;;;;1.98;1.80;;;;;;;;;;7430381;19;20001;-87
2022/11/14 12:59:02;;;;;;;13.13;2.28;;;;;;;;;;7422958;19;19995;-91
2022/11/14 13:01:49;;;;;;;5.47;2.00;;;;;;;;;;7414765;19;20577;-89
2022/11/14 13:04:35;;;;;;;44.38;3.90;;;;;;;;;;7411570;19;20010;-85
2022/11/14 13:07:25;;;;;;;2.90;1.90;;;;;;;;;;7414212;19;20002;-86
2022/11/14 13:10:26;;;;;;;2.58;2.30;;;;;;;;;;7406123;19;19999;-87
